createdAt,value
2023-04-02T00:00:23.815Z,77.28
2023-04-02T00:03:03.863Z,77.44
2023-04-02T00:05:52.870Z,77.62
2023-04-02T00:08:32.340Z,77.43
2023-04-02T00:11:02.383Z,77.42
2023-04-02T00:13:36.964Z,77.49
2023-04-02T00:16:09.004Z,77.49
2023-04-02T00:18:44.029Z,77.78
2023-04-02T00:21:17.560Z,78.28
2023-04-02T00:23:46.214Z,78.53
2023-04-02T00:26:26.776Z,78.92
2023-04-02T00:28:57.984Z,79.26
2023-04-02T00:31:27.787Z,79.03
2023-04-02T00:33:57.232Z,79.38
2023-04-02T00:36:30.194Z,79.26
2023-04-02T00:39:05.104Z,79.66
2023-04-02T00:41:36.157Z,79.78
2023-04-02T00:44:07.318Z,79.22
2023-04-02T00:46:49.747Z,79.78
2023-04-02T00:49:28.687Z,79.50
2023-04-02T00:52:02.077Z,80.08
2023-04-02T00:54:40.276Z,80.11
2023-04-02T00:57:18.059Z,79.69
2023-04-02T00:59:58.459Z,79.77
2023-04-02T01:02:31.847Z,79.53
2023-04-02T01:05:02.319Z,80.16
2023-04-02T01:07:59.968Z,80.53
2023-04-02T01:10:51.528Z,79.58
2023-04-02T01:13:28.684Z,80.30
2023-04-02T01:16:06.169Z,80.20
2023-04-02T01:18:51.496Z,80.13
2023-04-02T01:21:53.944Z,80.03
2023-04-02T01:24:26.657Z,79.67
2023-04-02T01:26:58.408Z,80.47
2023-04-02T01:29:31.580Z,79.93
2023-04-02T01:32:04.287Z,80.48
2023-04-02T01:34:33.785Z,79.56
2023-04-02T01:37:23.293Z,80.01
2023-04-02T01:40:09.297Z,80.65
2023-04-02T01:42:50.552Z,80.64
2023-04-02T01:45:23.768Z,80.75
2023-04-02T01:47:52.911Z,80.45
2023-04-02T01:50:32.248Z,80.53
2023-04-02T01:53:04.092Z,80.90
2023-04-02T01:55:41.986Z,80.65
2023-04-02T01:58:12.507Z,80.57
2023-04-02T02:00:48.863Z,81.06
2023-04-02T02:03:17.940Z,79.94
2023-04-02T02:05:47.531Z,81.10
2023-04-02T02:08:36.026Z,80.40
2023-04-02T02:11:05.722Z,80.30
2023-04-02T02:13:34.069Z,80.79
2023-04-02T02:16:06.171Z,79.81
2023-04-02T02:18:35.227Z,80.09
2023-04-02T02:21:09.373Z,79.79
2023-04-02T02:23:38.396Z,80.21
2023-04-02T02:26:08.139Z,81.14
2023-04-02T02:28:41.452Z,80.44
2023-04-02T02:31:18.681Z,79.95
2023-04-02T02:33:53.696Z,80.90
2023-04-02T02:36:29.472Z,79.83
2023-04-02T02:39:03.623Z,80.00
2023-04-02T02:41:41.495Z,80.02
2023-04-02T02:44:18.804Z,79.81
2023-04-02T02:46:53.074Z,80.71
2023-04-02T02:49:28.459Z,80.80
2023-04-02T02:52:05.545Z,81.02
2023-04-02T02:54:36.400Z,80.01
2023-04-02T02:57:10.080Z,80.79
2023-04-02T02:59:39.564Z,79.95
2023-04-02T03:02:11.051Z,80.70
2023-04-02T03:04:40.333Z,80.04
2023-04-02T03:07:10.458Z,80.75
2023-04-02T03:09:48.666Z,79.98
2023-04-02T03:12:38.037Z,80.82
2023-04-02T03:15:21.468Z,80.32
2023-04-02T03:17:57.767Z,80.07
2023-04-02T03:20:34.166Z,79.87
2023-04-02T03:23:13.854Z,80.58
2023-04-02T03:25:48.738Z,80.47
2023-04-02T03:28:22.476Z,80.15
2023-04-02T03:30:56.996Z,80.01
2023-04-02T03:33:32.628Z,80.45
2023-04-02T03:36:18.948Z,80.62
2023-04-02T03:38:52.987Z,80.44
2023-04-02T03:41:28.278Z,80.62
2023-04-02T03:44:00.470Z,79.94
2023-04-02T03:46:33.142Z,80.32
2023-04-02T03:49:08.419Z,80.08
2023-04-02T03:51:45.482Z,80.22
2023-04-02T03:54:17.385Z,80.93
2023-04-02T03:56:47.673Z,80.80
2023-04-02T03:59:25.994Z,80.78
2023-04-02T04:02:00.940Z,81.09
2023-04-02T04:04:33.419Z,80.36
2023-04-02T04:07:03.031Z,81.15
2023-04-02T04:09:34.647Z,80.93
2023-04-02T04:12:16.650Z,80.70
2023-04-02T04:14:51.389Z,81.35
2023-04-02T04:17:30.183Z,80.91
2023-04-02T04:20:10.856Z,80.52
2023-04-02T04:22:40.940Z,81.02
2023-04-02T04:25:22.860Z,81.65
2023-04-02T04:28:11.487Z,81.33
2023-04-02T04:30:51.444Z,80.82
2023-04-02T04:33:24.914Z,80.86
2023-04-02T04:35:59.155Z,81.69
2023-04-02T04:38:34.418Z,82.10
2023-04-02T04:41:07.972Z,81.34
2023-04-02T04:43:46.815Z,81.19
2023-04-02T04:46:19.638Z,81.93
2023-04-02T04:48:55.889Z,82.00
2023-04-02T04:51:31.821Z,82.06
2023-04-02T04:54:01.889Z,82.07
2023-04-02T04:56:32.296Z,82.24
2023-04-02T04:59:05.223Z,82.02
2023-04-02T05:01:40.541Z,81.98
2023-04-02T05:04:18.524Z,82.25
2023-04-02T05:06:57.044Z,81.97
2023-04-02T05:09:34.286Z,81.89
2023-04-02T05:12:13.340Z,81.95
2023-04-02T05:14:48.242Z,82.25
2023-04-02T05:17:22.775Z,82.88
2023-04-02T05:19:57.762Z,82.54
2023-04-02T05:22:36.280Z,82.97
2023-04-02T05:25:21.534Z,82.93
2023-04-02T05:27:56.071Z,83.00
2023-04-02T05:30:49.443Z,82.71
2023-04-02T05:33:27.748Z,82.47
2023-04-02T05:36:02.268Z,82.58
2023-04-02T05:38:35.918Z,83.06
2023-04-02T05:41:08.144Z,83.20
2023-04-02T05:43:39.213Z,82.77
2023-04-02T05:46:17.792Z,83.08
2023-04-02T05:48:52.415Z,83.22
2023-04-02T05:51:27.572Z,82.95
2023-04-02T05:54:00.798Z,83.29
2023-04-02T05:56:36.062Z,82.71
2023-04-02T05:59:10.622Z,82.64
2023-04-02T06:01:47.346Z,83.54
2023-04-02T06:04:26.645Z,83.82
2023-04-02T06:07:03.975Z,83.08
2023-04-02T06:09:47.373Z,83.48
2023-04-02T06:12:25.969Z,83.13
2023-04-02T06:14:54.888Z,83.37
2023-04-02T06:17:23.998Z,82.50
2023-04-02T06:19:54.657Z,82.69
2023-04-02T06:22:33.891Z,82.70
2023-04-02T06:25:07.853Z,82.49
2023-04-02T06:27:36.705Z,82.16
2023-04-02T06:30:11.729Z,82.04
2023-04-02T06:32:40.440Z,82.63
2023-04-02T06:35:14.307Z,82.20
2023-04-02T06:37:47.201Z,81.91
2023-04-02T06:40:40.373Z,81.83
2023-04-02T06:43:17.710Z,82.43
2023-04-02T06:45:51.834Z,82.44
2023-04-02T06:48:22.321Z,81.35
2023-04-02T06:50:56.653Z,81.94
2023-04-02T06:53:29.544Z,81.04
2023-04-02T06:56:05.681Z,81.24
2023-04-02T06:58:34.309Z,80.65
2023-04-02T07:01:02.719Z,81.34
2023-04-02T07:03:34.070Z,80.31
2023-04-02T07:06:04.859Z,80.69
2023-04-02T07:08:33.346Z,80.58
2023-04-02T07:11:03.146Z,80.39
2023-04-02T07:13:31.650Z,79.82
2023-04-02T07:16:00.168Z,79.22
2023-04-02T07:18:31.429Z,79.21
2023-04-02T07:21:00.264Z,78.63
2023-04-02T07:23:28.806Z,79.17
2023-04-02T07:25:58.527Z,78.44
2023-04-02T07:28:28.688Z,78.73
2023-04-02T07:30:58.007Z,77.87
2023-04-02T07:33:30.186Z,77.76
2023-04-02T07:35:59.504Z,77.56
2023-04-02T07:38:28.209Z,77.63
2023-04-02T07:40:57.091Z,77.12
2023-04-02T07:43:25.937Z,77.00
2023-04-02T07:45:55.878Z,76.91
2023-04-02T07:48:24.844Z,76.33
2023-04-02T07:50:54.979Z,75.75
2023-04-02T07:53:30.892Z,75.41
2023-04-02T07:56:02.912Z,74.76
2023-04-02T07:58:32.416Z,74.74
2023-04-02T08:01:03.788Z,74.19
2023-04-02T08:03:32.879Z,73.66
2023-04-02T08:06:01.463Z,73.68
2023-04-02T08:08:29.899Z,73.14
2023-04-02T08:10:58.240Z,72.97
2023-04-02T08:13:27.597Z,72.51
2023-04-02T08:15:56.274Z,72.71
2023-04-02T08:18:28.150Z,71.51
2023-04-02T08:20:57.278Z,72.05
2023-04-02T08:23:26.652Z,71.35
2023-04-02T08:25:56.186Z,70.29
2023-04-02T08:28:25.549Z,69.53
2023-04-02T08:30:54.057Z,69.60
2023-04-02T08:33:22.555Z,68.89
2023-04-02T08:35:53.141Z,68.56
2023-04-02T08:38:23.827Z,68.68
2023-04-02T08:40:54.855Z,68.56
2023-04-02T08:43:42.813Z,68.63
2023-04-02T08:46:20.051Z,68.62
2023-04-02T08:48:57.000Z,68.02
2023-04-02T08:51:31.039Z,68.19
2023-04-02T08:54:05.233Z,68.09
2023-04-02T08:56:41.423Z,66.83
2023-04-02T08:59:21.307Z,67.95
2023-04-02T09:01:58.037Z,66.51
2023-04-02T09:04:27.881Z,66.94
2023-04-02T09:07:00.830Z,66.98
2023-04-02T09:09:29.576Z,66.29
2023-04-02T09:12:02.901Z,66.13
2023-04-02T09:14:43.373Z,66.30
2023-04-02T09:17:19.547Z,65.60
2023-04-02T09:20:19.319Z,66.18
2023-04-02T09:22:58.702Z,65.23
2023-04-02T09:25:42.202Z,65.60
2023-04-02T09:28:14.020Z,65.37
2023-04-02T09:31:06.875Z,65.18
2023-04-02T09:33:45.911Z,64.95
2023-04-02T09:36:42.089Z,64.10
2023-04-02T09:39:30.657Z,64.75
2023-04-02T09:42:09.624Z,63.54
2023-04-02T09:45:14.807Z,63.49
2023-04-02T09:47:47.922Z,64.05
2023-04-02T09:50:36.347Z,63.78
2023-04-02T09:53:34.069Z,62.58
2023-04-02T09:56:26.293Z,62.35
2023-04-02T09:59:08.497Z,62.74
2023-04-02T10:01:43.684Z,62.45
2023-04-02T10:04:37.482Z,62.14
2023-04-02T10:07:38.549Z,62.17
2023-04-02T10:10:28.031Z,61.62
2023-04-02T10:13:06.253Z,61.07
2023-04-02T10:18:48.213Z,60.35
2023-04-02T10:21:40.033Z,60.70
2023-04-02T10:24:14.877Z,59.50
2023-04-02T10:27:18.113Z,59.89
2023-04-02T10:30:15.642Z,60.13
2023-04-02T10:32:56.796Z,60.00
2023-04-02T10:35:43.129Z,59.53
2023-04-02T10:38:40.424Z,59.04
2023-04-02T10:42:04.014Z,59.14
2023-04-02T10:45:52.832Z,58.58
2023-04-02T10:48:36.007Z,58.40
2023-04-02T10:51:09.665Z,57.65
2023-04-02T10:54:01.802Z,58.52
2023-04-02T10:56:44.466Z,57.78
2023-04-02T10:59:33.583Z,57.13
2023-04-02T11:05:31.821Z,58.15
2023-04-02T11:46:05.921Z,56.35
2023-04-02T11:49:45.349Z,55.82
2023-04-02T11:58:01.567Z,55.79
2023-04-02T12:01:21.954Z,54.44
2023-04-02T12:05:10.624Z,53.87
2023-04-02T12:08:14.712Z,53.42
2023-04-02T12:11:19.021Z,52.67
2023-04-02T12:18:19.552Z,51.88
2023-04-02T12:21:49.617Z,50.99
2023-04-02T12:24:42.400Z,50.46
2023-04-02T12:29:25.002Z,50.08
2023-04-02T12:32:54.611Z,49.88
2023-04-02T12:53:46.350Z,44.38
2023-04-02T13:11:54.508Z,40.42
2023-04-02T13:29:16.135Z,36.20
2023-04-02T13:35:14.948Z,35.16
2023-04-02T13:37:51.035Z,34.80
2023-04-02T13:40:49.209Z,34.29
2023-04-02T13:43:37.098Z,34.72
2023-04-02T13:47:59.378Z,33.33
2023-04-02T13:50:48.927Z,33.71
2023-04-02T13:53:59.237Z,32.91
2023-04-02T13:57:06.402Z,32.13
2023-04-02T13:59:48.236Z,31.98
2023-04-02T14:06:13.524Z,31.97
2023-04-02T14:10:14.252Z,31.40
2023-04-02T14:14:01.805Z,32.50
2023-04-02T14:17:01.931Z,32.00
2023-04-02T14:21:05.816Z,30.77
2023-04-02T14:29:53.916Z,30.12
2023-04-02T15:23:22.136Z,24.93
2023-04-02T15:26:14.484Z,23.87
2023-04-02T15:43:02.727Z,23.48
2023-04-02T15:51:10.159Z,22.72
2023-04-02T15:54:46.649Z,22.56
2023-04-02T15:58:13.505Z,22.72
2023-04-02T16:01:09.891Z,22.44
2023-04-02T16:13:40.725Z,22.40
2023-04-02T16:16:23.159Z,22.16
2023-04-02T16:32:16.231Z,22.49
2023-04-02T16:36:04.232Z,22.53
2023-04-02T17:02:07.827Z,22.35
2023-04-02T17:05:41.777Z,22.60
2023-04-02T17:17:48.982Z,22.56
2023-04-02T17:25:42.880Z,23.62
2023-04-02T17:28:44.599Z,23.93
2023-04-02T17:31:40.435Z,23.87
2023-04-02T17:34:34.821Z,24.20
2023-04-02T17:37:58.715Z,25.11
2023-04-02T17:41:00.545Z,25.85
2023-04-02T17:44:02.657Z,26.22
2023-04-02T17:47:02.334Z,28.19
2023-04-02T17:51:04.004Z,28.84
2023-04-02T17:54:05.606Z,30.32
2023-04-02T17:58:22.842Z,31.89
2023-04-02T18:01:12.824Z,33.15
2023-04-02T18:04:11.291Z,34.89
2023-04-02T18:08:07.738Z,34.91
2023-04-02T18:15:03.490Z,36.68
2023-04-02T18:18:00.296Z,37.23
2023-04-02T18:26:09.381Z,38.74
2023-04-02T18:43:39.727Z,41.08
2023-04-02T18:46:39.297Z,42.23
2023-04-02T18:49:39.754Z,43.31
2023-04-02T18:52:48.019Z,43.22
2023-04-02T18:55:43.359Z,43.70
2023-04-02T18:59:02.965Z,44.89
2023-04-02T19:50:14.755Z,48.65
2023-04-02T19:53:20.146Z,49.21
2023-04-02T19:56:01.932Z,49.69
2023-04-02T19:58:58.234Z,50.57
2023-04-02T20:02:45.606Z,50.67
2023-04-02T20:05:38.263Z,51.19
2023-04-02T20:09:18.202Z,51.35
2023-04-02T20:11:50.394Z,51.79
2023-04-02T20:15:55.714Z,52.39
2023-04-02T20:18:39.770Z,53.00
2023-04-02T20:22:01.630Z,53.17
2023-04-02T20:29:42.035Z,54.32
2023-04-02T20:37:59.141Z,55.03
2023-04-02T20:41:55.258Z,55.30
2023-04-02T20:44:45.243Z,56.00
2023-04-02T20:47:43.699Z,56.79
2023-04-02T20:50:49.346Z,56.83
2023-04-02T20:53:42.185Z,57.10
2023-04-02T20:56:32.484Z,57.58
2023-04-02T20:59:20.169Z,58.25
2023-04-02T21:01:59.328Z,58.92
2023-04-02T21:04:54.905Z,58.80
2023-04-02T21:07:50.720Z,58.75
2023-04-02T21:10:52.678Z,58.54
2023-04-02T21:13:49.893Z,58.67
2023-04-02T21:16:37.007Z,59.41
2023-04-02T21:19:44.805Z,58.70
2023-04-02T21:23:02.452Z,58.97
2023-04-02T21:25:41.809Z,59.50
2023-04-02T21:29:59.529Z,59.24
2023-04-02T21:32:37.560Z,59.13
2023-04-02T21:39:37.794Z,59.07
2023-04-02T21:42:48.240Z,59.72
2023-04-02T21:45:24.525Z,59.68
2023-04-02T21:59:47.046Z,59.67
2023-04-02T22:02:49.842Z,59.73
2023-04-02T22:10:11.666Z,59.66
2023-04-02T22:13:37.595Z,59.77
2023-04-02T22:16:12.164Z,60.09
2023-04-02T22:18:48.977Z,60.37
2023-04-02T22:21:35.423Z,60.54
2023-04-02T22:28:18.761Z,60.10
2023-04-02T22:31:59.656Z,60.96
2023-04-02T22:48:04.515Z,61.23
2023-04-02T22:51:33.673Z,60.60
2023-04-02T22:58:36.776Z,61.14
2023-04-02T23:01:13.060Z,61.09
2023-04-02T23:03:49.848Z,61.57
2023-04-02T23:06:58.764Z,61.01
2023-04-02T23:09:40.551Z,61.81
2023-04-02T23:12:12.452Z,61.83
2023-04-02T23:15:08.143Z,61.44
2023-04-02T23:18:01.837Z,61.70
2023-04-02T23:20:44.001Z,61.99
2023-04-02T23:23:53.075Z,62.09
2023-04-02T23:27:02.796Z,61.89
2023-04-02T23:29:41.261Z,61.41
2023-04-02T23:35:02.449Z,62.25
2023-04-02T23:37:42.111Z,61.35
2023-04-02T23:40:17.206Z,62.30
2023-04-02T23:42:47.647Z,62.56
2023-04-02T23:46:06.985Z,61.70
2023-04-02T23:49:04.234Z,61.62
2023-04-02T23:51:51.500Z,61.75
2023-04-02T23:55:05.058Z,61.73
2023-04-02T23:58:01.664Z,62.42
